sensor_id;sensor_type;location;lat;lon;timestamp;P1;durP1;ratioP1;P2;durP2;ratioP2
14611;SDS011;7392;52.078;11.650;2023-02-08T00:00:21;44.57;;;23.23;;
14611;SDS011;7392;52.078;11.650;2023-02-08T00:02:49;46.77;;;23.90;;
14611;SDS011;7392;52.078;11.650;2023-02-08T00:05:17;47.07;;;23.30;;
14611;SDS011;7392;52.078;11.650;2023-02-08T00:07:46;43.57;;;22.53;;
14611;SDS011;7392;52.078;11.650;2023-02-08T00:10:15;43.17;;;21.53;;
14611;SDS011;7392;52.078;11.650;2023-02-08T00:12:43;40.77;;;21.60;;
14611;SDS011;7392;52.078;11.650;2023-02-08T00:15:10;45.40;;;23.60;;
14611;SDS011;7392;52.078;11.650;2023-02-08T00:17:38;51.17;;;24.00;;
14611;SDS011;7392;52.078;11.650;2023-02-08T00:20:06;47.93;;;24.47;;
14611;SDS011;7392;52.078;11.650;2023-02-08T00:22:35;54.03;;;26.80;;
14611;SDS011;7392;52.078;11.650;2023-02-08T00:25:04;64.00;;;29.27;;
14611;SDS011;7392;52.078;11.650;2023-02-08T00:27:34;69.77;;;32.40;;
14611;SDS011;7392;52.078;11.650;2023-02-08T00:30:01;65.13;;;31.93;;
14611;SDS011;7392;52.078;11.650;2023-02-08T00:32:29;64.03;;;31.33;;
14611;SDS011;7392;52.078;11.650;2023-02-08T00:34:57;67.17;;;30.70;;
14611;SDS011;7392;52.078;11.650;2023-02-08T00:37:25;64.00;;;30.17;;
14611;SDS011;7392;52.078;11.650;2023-02-08T00:39:52;61.87;;;31.70;;
14611;SDS011;7392;52.078;11.650;2023-02-08T00:42:22;62.50;;;31.27;;
14611;SDS011;7392;52.078;11.650;2023-02-08T00:44:52;59.43;;;28.80;;
14611;SDS011;7392;52.078;11.650;2023-02-08T00:47:20;52.30;;;26.27;;
14611;SDS011;7392;52.078;11.650;2023-02-08T00:49:48;59.93;;;28.57;;
14611;SDS011;7392;52.078;11.650;2023-02-08T00:52:16;60.47;;;29.27;;
14611;SDS011;7392;52.078;11.650;2023-02-08T00:54:44;66.33;;;31.70;;
14611;SDS011;7392;52.078;11.650;2023-02-08T00:57:12;64.60;;;31.40;;
14611;SDS011;7392;52.078;11.650;2023-02-08T00:59:40;67.17;;;31.50;;
14611;SDS011;7392;52.078;11.650;2023-02-08T01:02:09;73.43;;;34.23;;
14611;SDS011;7392;52.078;11.650;2023-02-08T01:04:37;66.50;;;32.93;;
14611;SDS011;7392;52.078;11.650;2023-02-08T01:07:05;62.40;;;31.13;;
14611;SDS011;7392;52.078;11.650;2023-02-08T01:09:33;64.53;;;30.53;;
14611;SDS011;7392;52.078;11.650;2023-02-08T01:12:02;59.20;;;28.47;;
14611;SDS011;7392;52.078;11.650;2023-02-08T01:14:31;70.57;;;32.60;;
14611;SDS011;7392;52.078;11.650;2023-02-08T01:16:59;59.30;;;31.03;;
14611;SDS011;7392;52.078;11.650;2023-02-08T01:19:28;61.17;;;30.37;;
14611;SDS011;7392;52.078;11.650;2023-02-08T01:21:56;58.00;;;29.43;;
14611;SDS011;7392;52.078;11.650;2023-02-08T01:24:23;59.33;;;29.87;;
14611;SDS011;7392;52.078;11.650;2023-02-08T01:26:51;59.33;;;31.43;;
14611;SDS011;7392;52.078;11.650;2023-02-08T01:29:19;64.33;;;32.67;;
14611;SDS011;7392;52.078;11.650;2023-02-08T01:31:46;70.97;;;33.67;;
14611;SDS011;7392;52.078;11.650;2023-02-08T01:34:14;63.20;;;31.97;;
14611;SDS011;7392;52.078;11.650;2023-02-08T01:36:43;66.30;;;30.73;;
14611;SDS011;7392;52.078;11.650;2023-02-08T01:39:11;58.23;;;28.47;;
14611;SDS011;7392;52.078;11.650;2023-02-08T01:41:39;60.50;;;29.03;;
14611;SDS011;7392;52.078;11.650;2023-02-08T01:47:10;59.83;;;30.53;;
14611;SDS011;7392;52.078;11.650;2023-02-08T01:49:38;69.67;;;32.07;;
14611;SDS011;7392;52.078;11.650;2023-02-08T01:52:08;69.77;;;32.70;;
14611;SDS011;7392;52.078;11.650;2023-02-08T01:54:43;58.07;;;29.87;;
14611;SDS011;7392;52.078;11.650;2023-02-08T01:57:17;57.43;;;29.20;;
14611;SDS011;7392;52.078;11.650;2023-02-08T01:59:46;58.67;;;30.63;;
14611;SDS011;7392;52.078;11.650;2023-02-08T02:02:16;58.33;;;30.00;;
14611;SDS011;7392;52.078;11.650;2023-02-08T02:04:47;61.13;;;30.07;;
14611;SDS011;7392;52.078;11.650;2023-02-08T02:07:19;64.80;;;30.57;;
14611;SDS011;7392;52.078;11.650;2023-02-08T02:09:50;64.33;;;30.93;;
14611;SDS011;7392;52.078;11.650;2023-02-08T02:12:25;66.00;;;31.43;;
14611;SDS011;7392;52.078;11.650;2023-02-08T02:14:53;69.37;;;33.53;;
14611;SDS011;7392;52.078;11.650;2023-02-08T02:17:21;66.07;;;31.13;;
14611;SDS011;7392;52.078;11.650;2023-02-08T02:19:51;68.97;;;34.87;;
14611;SDS011;7392;52.078;11.650;2023-02-08T02:22:31;74.00;;;34.67;;
14611;SDS011;7392;52.078;11.650;2023-02-08T02:25:24;70.33;;;34.00;;
14611;SDS011;7392;52.078;11.650;2023-02-08T02:28:20;73.67;;;34.67;;
14611;SDS011;7392;52.078;11.650;2023-02-08T02:31:11;68.60;;;33.63;;
14611;SDS011;7392;52.078;11.650;2023-02-08T02:34:16;72.17;;;34.10;;
14611;SDS011;7392;52.078;11.650;2023-02-08T02:36:52;69.57;;;33.37;;
14611;SDS011;7392;52.078;11.650;2023-02-08T02:39:31;66.60;;;33.97;;
14611;SDS011;7392;52.078;11.650;2023-02-08T02:42:06;62.50;;;31.47;;
14611;SDS011;7392;52.078;11.650;2023-02-08T02:44:57;57.73;;;30.17;;
14611;SDS011;7392;52.078;11.650;2023-02-08T02:47:35;65.53;;;31.03;;
14611;SDS011;7392;52.078;11.650;2023-02-08T02:50:11;63.20;;;30.63;;
14611;SDS011;7392;52.078;11.650;2023-02-08T02:52:47;67.47;;;31.73;;
14611;SDS011;7392;52.078;11.650;2023-02-08T02:55:23;67.70;;;31.77;;
14611;SDS011;7392;52.078;11.650;2023-02-08T02:57:54;61.37;;;32.10;;
14611;SDS011;7392;52.078;11.650;2023-02-08T03:00:25;61.53;;;31.20;;
14611;SDS011;7392;52.078;11.650;2023-02-08T03:02:57;63.27;;;31.83;;
14611;SDS011;7392;52.078;11.650;2023-02-08T03:05:25;65.37;;;30.77;;
14611;SDS011;7392;52.078;11.650;2023-02-08T03:11:00;62.47;;;31.43;;
14611;SDS011;7392;52.078;11.650;2023-02-08T03:13:45;56.77;;;28.33;;
14611;SDS011;7392;52.078;11.650;2023-02-08T03:16:25;65.87;;;33.13;;
14611;SDS011;7392;52.078;11.650;2023-02-08T03:19:06;67.57;;;34.53;;
14611;SDS011;7392;52.078;11.650;2023-02-08T03:21:42;68.17;;;34.00;;
14611;SDS011;7392;52.078;11.650;2023-02-08T03:24:21;69.13;;;31.80;;
14611;SDS011;7392;52.078;11.650;2023-02-08T03:26:52;62.77;;;32.97;;
14611;SDS011;7392;52.078;11.650;2023-02-08T03:29:25;62.53;;;31.17;;
14611;SDS011;7392;52.078;11.650;2023-02-08T03:32:05;63.83;;;31.70;;
14611;SDS011;7392;52.078;11.650;2023-02-08T03:34:40;65.73;;;32.90;;
14611;SDS011;7392;52.078;11.650;2023-02-08T03:37:13;58.93;;;31.87;;
14611;SDS011;7392;52.078;11.650;2023-02-08T03:39:44;62.13;;;32.60;;
14611;SDS011;7392;52.078;11.650;2023-02-08T03:42:16;64.57;;;32.63;;
14611;SDS011;7392;52.078;11.650;2023-02-08T03:44:50;57.70;;;29.50;;
14611;SDS011;7392;52.078;11.650;2023-02-08T03:47:23;57.13;;;29.77;;
14611;SDS011;7392;52.078;11.650;2023-02-08T03:49:55;66.93;;;34.37;;
14611;SDS011;7392;52.078;11.650;2023-02-08T03:52:28;61.50;;;33.03;;
14611;SDS011;7392;52.078;11.650;2023-02-08T03:54:59;66.77;;;34.27;;
14611;SDS011;7392;52.078;11.650;2023-02-08T03:57:31;62.87;;;33.67;;
14611;SDS011;7392;52.078;11.650;2023-02-08T04:00:03;60.73;;;32.13;;
14611;SDS011;7392;52.078;11.650;2023-02-08T04:02:37;51.13;;;30.47;;
14611;SDS011;7392;52.078;11.650;2023-02-08T04:05:10;59.73;;;30.07;;
14611;SDS011;7392;52.078;11.650;2023-02-08T04:07:38;55.10;;;28.47;;
14611;SDS011;7392;52.078;11.650;2023-02-08T04:10:06;55.97;;;28.07;;
14611;SDS011;7392;52.078;11.650;2023-02-08T04:12:34;57.07;;;28.40;;
14611;SDS011;7392;52.078;11.650;2023-02-08T04:15:02;48.27;;;27.90;;
14611;SDS011;7392;52.078;11.650;2023-02-08T04:17:30;49.20;;;26.20;;
14611;SDS011;7392;52.078;11.650;2023-02-08T04:19:58;64.10;;;32.00;;
14611;SDS011;7392;52.078;11.650;2023-02-08T04:22:27;52.93;;;29.13;;
14611;SDS011;7392;52.078;11.650;2023-02-08T04:24:55;52.40;;;28.90;;
14611;SDS011;7392;52.078;11.650;2023-02-08T04:27:23;55.57;;;30.57;;
14611;SDS011;7392;52.078;11.650;2023-02-08T04:29:50;51.23;;;29.03;;
14611;SDS011;7392;52.078;11.650;2023-02-08T04:32:18;60.37;;;31.10;;
14611;SDS011;7392;52.078;11.650;2023-02-08T04:34:46;52.10;;;27.80;;
14611;SDS011;7392;52.078;11.650;2023-02-08T04:37:13;54.57;;;28.97;;
14611;SDS011;7392;52.078;11.650;2023-02-08T04:39:42;52.80;;;29.87;;
14611;SDS011;7392;52.078;11.650;2023-02-08T04:42:10;47.03;;;26.87;;
14611;SDS011;7392;52.078;11.650;2023-02-08T04:44:37;52.27;;;28.20;;
14611;SDS011;7392;52.078;11.650;2023-02-08T04:47:05;52.40;;;27.17;;
14611;SDS011;7392;52.078;11.650;2023-02-08T04:49:33;50.83;;;26.63;;
14611;SDS011;7392;52.078;11.650;2023-02-08T04:52:00;56.93;;;28.10;;
14611;SDS011;7392;52.078;11.650;2023-02-08T04:54:28;51.67;;;28.47;;
14611;SDS011;7392;52.078;11.650;2023-02-08T04:56:57;51.30;;;27.10;;
14611;SDS011;7392;52.078;11.650;2023-02-08T04:59:25;43.07;;;25.17;;
14611;SDS011;7392;52.078;11.650;2023-02-08T05:01:52;49.67;;;25.60;;
14611;SDS011;7392;52.078;11.650;2023-02-08T05:04:20;43.37;;;23.87;;
14611;SDS011;7392;52.078;11.650;2023-02-08T05:06:48;50.60;;;26.40;;
14611;SDS011;7392;52.078;11.650;2023-02-08T05:09:15;45.80;;;25.27;;
14611;SDS011;7392;52.078;11.650;2023-02-08T05:11:43;44.67;;;24.37;;
14611;SDS011;7392;52.078;11.650;2023-02-08T05:14:12;44.27;;;24.23;;
14611;SDS011;7392;52.078;11.650;2023-02-08T05:16:39;48.07;;;24.43;;
14611;SDS011;7392;52.078;11.650;2023-02-08T05:19:08;44.00;;;24.73;;
14611;SDS011;7392;52.078;11.650;2023-02-08T05:21:35;47.53;;;26.37;;
14611;SDS011;7392;52.078;11.650;2023-02-08T05:24:03;47.40;;;25.90;;
14611;SDS011;7392;52.078;11.650;2023-02-08T05:26:32;49.93;;;26.30;;
14611;SDS011;7392;52.078;11.650;2023-02-08T05:28:59;48.53;;;27.43;;
14611;SDS011;7392;52.078;11.650;2023-02-08T05:31:29;51.77;;;28.63;;
14611;SDS011;7392;52.078;11.650;2023-02-08T05:33:56;47.13;;;25.83;;
14611;SDS011;7392;52.078;11.650;2023-02-08T05:36:24;49.43;;;28.27;;
14611;SDS011;7392;52.078;11.650;2023-02-08T05:38:52;52.13;;;27.97;;
14611;SDS011;7392;52.078;11.650;2023-02-08T05:41:19;50.93;;;28.60;;
14611;SDS011;7392;52.078;11.650;2023-02-08T05:43:47;43.77;;;25.97;;
14611;SDS011;7392;52.078;11.650;2023-02-08T05:46:15;41.90;;;24.33;;
14611;SDS011;7392;52.078;11.650;2023-02-08T05:48:44;51.43;;;27.07;;
14611;SDS011;7392;52.078;11.650;2023-02-08T05:51:11;45.93;;;26.07;;
14611;SDS011;7392;52.078;11.650;2023-02-08T05:53:39;39.50;;;23.70;;
14611;SDS011;7392;52.078;11.650;2023-02-08T05:56:08;44.63;;;25.50;;
14611;SDS011;7392;52.078;11.650;2023-02-08T05:58:36;41.27;;;22.37;;
14611;SDS011;7392;52.078;11.650;2023-02-08T06:01:06;37.27;;;21.43;;
14611;SDS011;7392;52.078;11.650;2023-02-08T06:03:35;37.83;;;21.07;;
14611;SDS011;7392;52.078;11.650;2023-02-08T06:06:05;39.77;;;21.83;;
14611;SDS011;7392;52.078;11.650;2023-02-08T06:08:36;36.27;;;20.47;;
14611;SDS011;7392;52.078;11.650;2023-02-08T06:11:04;39.60;;;21.33;;
14611;SDS011;7392;52.078;11.650;2023-02-08T06:13:32;44.90;;;25.27;;
14611;SDS011;7392;52.078;11.650;2023-02-08T06:16:00;47.17;;;26.10;;
14611;SDS011;7392;52.078;11.650;2023-02-08T06:18:28;50.60;;;27.47;;
14611;SDS011;7392;52.078;11.650;2023-02-08T06:20:55;48.00;;;26.00;;
14611;SDS011;7392;52.078;11.650;2023-02-08T06:23:25;48.17;;;25.37;;
14611;SDS011;7392;52.078;11.650;2023-02-08T06:25:52;49.13;;;26.73;;
14611;SDS011;7392;52.078;11.650;2023-02-08T06:28:20;44.47;;;24.87;;
14611;SDS011;7392;52.078;11.650;2023-02-08T06:30:47;46.20;;;25.73;;
14611;SDS011;7392;52.078;11.650;2023-02-08T06:33:15;48.90;;;26.57;;
14611;SDS011;7392;52.078;11.650;2023-02-08T06:35:43;48.33;;;26.67;;
14611;SDS011;7392;52.078;11.650;2023-02-08T06:38:11;52.10;;;29.37;;
14611;SDS011;7392;52.078;11.650;2023-02-08T06:40:41;50.70;;;28.70;;
14611;SDS011;7392;52.078;11.650;2023-02-08T06:43:08;48.83;;;27.13;;
14611;SDS011;7392;52.078;11.650;2023-02-08T06:45:36;50.27;;;28.00;;
14611;SDS011;7392;52.078;11.650;2023-02-08T06:48:04;47.43;;;26.40;;
14611;SDS011;7392;52.078;11.650;2023-02-08T06:50:31;47.70;;;26.40;;
14611;SDS011;7392;52.078;11.650;2023-02-08T06:52:59;47.40;;;25.07;;
14611;SDS011;7392;52.078;11.650;2023-02-08T06:55:27;40.43;;;24.90;;
14611;SDS011;7392;52.078;11.650;2023-02-08T06:57:56;44.33;;;25.27;;
14611;SDS011;7392;52.078;11.650;2023-02-08T07:00:23;44.60;;;26.53;;
14611;SDS011;7392;52.078;11.650;2023-02-08T07:02:51;44.60;;;25.63;;
14611;SDS011;7392;52.078;11.650;2023-02-08T07:05:18;45.33;;;26.83;;
14611;SDS011;7392;52.078;11.650;2023-02-08T07:07:46;45.30;;;26.00;;
14611;SDS011;7392;52.078;11.650;2023-02-08T07:10:14;46.87;;;25.50;;
14611;SDS011;7392;52.078;11.650;2023-02-08T07:12:42;50.53;;;27.27;;
14611;SDS011;7392;52.078;11.650;2023-02-08T07:15:11;49.90;;;28.27;;
14611;SDS011;7392;52.078;11.650;2023-02-08T07:17:39;49.37;;;27.80;;
14611;SDS011;7392;52.078;11.650;2023-02-08T07:20:07;48.77;;;28.43;;
14611;SDS011;7392;52.078;11.650;2023-02-08T07:22:36;52.37;;;28.67;;
14611;SDS011;7392;52.078;11.650;2023-02-08T07:25:05;52.17;;;30.10;;
14611;SDS011;7392;52.078;11.650;2023-02-08T07:27:34;47.83;;;26.00;;
14611;SDS011;7392;52.078;11.650;2023-02-08T07:30:02;50.73;;;28.23;;
14611;SDS011;7392;52.078;11.650;2023-02-08T07:32:31;47.47;;;26.80;;
14611;SDS011;7392;52.078;11.650;2023-02-08T07:35:00;46.23;;;27.50;;
14611;SDS011;7392;52.078;11.650;2023-02-08T07:37:27;51.97;;;28.20;;
14611;SDS011;7392;52.078;11.650;2023-02-08T07:39:55;47.53;;;27.13;;
14611;SDS011;7392;52.078;11.650;2023-02-08T07:42:23;50.17;;;28.03;;
14611;SDS011;7392;52.078;11.650;2023-02-08T07:45:02;50.23;;;27.27;;
14611;SDS011;7392;52.078;11.650;2023-02-08T07:47:29;40.90;;;23.57;;
14611;SDS011;7392;52.078;11.650;2023-02-08T07:49:58;43.57;;;25.63;;
14611;SDS011;7392;52.078;11.650;2023-02-08T07:52:26;48.43;;;26.80;;
14611;SDS011;7392;52.078;11.650;2023-02-08T07:54:54;46.30;;;25.87;;
14611;SDS011;7392;52.078;11.650;2023-02-08T07:57:22;43.97;;;26.43;;
14611;SDS011;7392;52.078;11.650;2023-02-08T07:59:49;52.57;;;28.53;;
14611;SDS011;7392;52.078;11.650;2023-02-08T08:02:19;52.00;;;29.67;;
14611;SDS011;7392;52.078;11.650;2023-02-08T08:04:47;53.63;;;29.63;;
14611;SDS011;7392;52.078;11.650;2023-02-08T08:07:16;56.17;;;30.50;;
14611;SDS011;7392;52.078;11.650;2023-02-08T08:09:43;55.47;;;30.83;;
14611;SDS011;7392;52.078;11.650;2023-02-08T08:12:11;48.27;;;28.87;;
14611;SDS011;7392;52.078;11.650;2023-02-08T08:14:38;48.53;;;28.63;;
14611;SDS011;7392;52.078;11.650;2023-02-08T08:17:06;48.77;;;27.77;;
14611;SDS011;7392;52.078;11.650;2023-02-08T08:19:34;47.30;;;26.83;;
14611;SDS011;7392;52.078;11.650;2023-02-08T08:22:01;42.80;;;25.93;;
14611;SDS011;7392;52.078;11.650;2023-02-08T08:24:30;56.80;;;32.07;;
14611;SDS011;7392;52.078;11.650;2023-02-08T08:27:00;53.77;;;30.53;;
14611;SDS011;7392;52.078;11.650;2023-02-08T08:29:30;57.80;;;31.60;;
14611;SDS011;7392;52.078;11.650;2023-02-08T08:31:58;63.53;;;34.33;;
14611;SDS011;7392;52.078;11.650;2023-02-08T08:34:25;55.53;;;32.07;;
14611;SDS011;7392;52.078;11.650;2023-02-08T08:36:55;49.47;;;29.03;;
14611;SDS011;7392;52.078;11.650;2023-02-08T08:39:23;50.57;;;30.03;;
14611;SDS011;7392;52.078;11.650;2023-02-08T08:41:54;50.80;;;29.53;;
14611;SDS011;7392;52.078;11.650;2023-02-08T08:44:23;48.93;;;29.13;;
14611;SDS011;7392;52.078;11.650;2023-02-08T08:46:53;61.93;;;33.33;;
14611;SDS011;7392;52.078;11.650;2023-02-08T08:49:21;66.73;;;36.50;;
14611;SDS011;7392;52.078;11.650;2023-02-08T08:51:49;67.80;;;35.80;;
14611;SDS011;7392;52.078;11.650;2023-02-08T08:54:17;74.23;;;39.70;;
14611;SDS011;7392;52.078;11.650;2023-02-08T08:56:45;72.13;;;39.23;;
14611;SDS011;7392;52.078;11.650;2023-02-08T08:59:15;70.07;;;39.13;;
14611;SDS011;7392;52.078;11.650;2023-02-08T09:01:42;71.83;;;37.27;;
14611;SDS011;7392;52.078;11.650;2023-02-08T09:04:10;70.43;;;36.43;;
14611;SDS011;7392;52.078;11.650;2023-02-08T09:06:38;70.87;;;39.90;;
14611;SDS011;7392;52.078;11.650;2023-02-08T09:09:06;74.30;;;38.30;;
14611;SDS011;7392;52.078;11.650;2023-02-08T09:11:34;73.23;;;38.90;;
14611;SDS011;7392;52.078;11.650;2023-02-08T09:14:01;75.00;;;38.67;;
14611;SDS011;7392;52.078;11.650;2023-02-08T09:16:31;76.50;;;39.17;;
14611;SDS011;7392;52.078;11.650;2023-02-08T09:19:00;74.03;;;37.00;;
14611;SDS011;7392;52.078;11.650;2023-02-08T09:21:28;79.20;;;38.43;;
14611;SDS011;7392;52.078;11.650;2023-02-08T09:23:55;72.83;;;36.83;;
14611;SDS011;7392;52.078;11.650;2023-02-08T09:26:23;69.10;;;35.07;;
14611;SDS011;7392;52.078;11.650;2023-02-08T09:28:52;71.87;;;37.07;;
14611;SDS011;7392;52.078;11.650;2023-02-08T09:31:20;66.27;;;36.30;;
14611;SDS011;7392;52.078;11.650;2023-02-08T09:33:51;77.63;;;39.10;;
14611;SDS011;7392;52.078;11.650;2023-02-08T09:36:20;67.90;;;35.17;;
14611;SDS011;7392;52.078;11.650;2023-02-08T09:38:49;74.30;;;38.30;;
14611;SDS011;7392;52.078;11.650;2023-02-08T09:41:25;73.77;;;37.40;;
14611;SDS011;7392;52.078;11.650;2023-02-08T09:44:09;69.27;;;35.47;;
14611;SDS011;7392;52.078;11.650;2023-02-08T09:46:48;75.80;;;38.50;;
14611;SDS011;7392;52.078;11.650;2023-02-08T09:49:25;72.07;;;37.67;;
14611;SDS011;7392;52.078;11.650;2023-02-08T09:51:57;73.67;;;38.13;;
14611;SDS011;7392;52.078;11.650;2023-02-08T09:54:30;73.17;;;40.00;;
14611;SDS011;7392;52.078;11.650;2023-02-08T09:57:00;69.27;;;38.87;;
14611;SDS011;7392;52.078;11.650;2023-02-08T09:59:32;82.07;;;41.60;;
14611;SDS011;7392;52.078;11.650;2023-02-08T10:02:03;85.43;;;41.50;;
14611;SDS011;7392;52.078;11.650;2023-02-08T10:04:55;79.10;;;39.93;;
14611;SDS011;7392;52.078;11.650;2023-02-08T10:07:26;69.57;;;38.60;;
14611;SDS011;7392;52.078;11.650;2023-02-08T10:09:55;71.83;;;38.97;;
14611;SDS011;7392;52.078;11.650;2023-02-08T10:12:30;73.20;;;40.03;;
14611;SDS011;7392;52.078;11.650;2023-02-08T10:15:14;75.27;;;40.10;;
14611;SDS011;7392;52.078;11.650;2023-02-08T10:17:59;75.07;;;39.53;;
14611;SDS011;7392;52.078;11.650;2023-02-08T10:20:42;72.23;;;41.30;;
14611;SDS011;7392;52.078;11.650;2023-02-08T10:23:20;73.97;;;39.93;;
14611;SDS011;7392;52.078;11.650;2023-02-08T10:26:02;73.83;;;40.10;;
14611;SDS011;7392;52.078;11.650;2023-02-08T10:28:45;75.97;;;40.80;;
14611;SDS011;7392;52.078;11.650;2023-02-08T10:31:35;69.53;;;38.00;;
14611;SDS011;7392;52.078;11.650;2023-02-08T10:34:18;65.07;;;36.03;;
14611;SDS011;7392;52.078;11.650;2023-02-08T10:36:52;65.03;;;38.20;;
14611;SDS011;7392;52.078;11.650;2023-02-08T10:39:22;71.93;;;40.00;;
14611;SDS011;7392;52.078;11.650;2023-02-08T10:41:54;73.83;;;39.20;;
14611;SDS011;7392;52.078;11.650;2023-02-08T10:44:24;71.13;;;41.93;;
14611;SDS011;7392;52.078;11.650;2023-02-08T10:47:02;75.33;;;42.73;;
14611;SDS011;7392;52.078;11.650;2023-02-08T10:49:39;74.37;;;40.97;;
14611;SDS011;7392;52.078;11.650;2023-02-08T10:52:16;69.23;;;39.23;;
14611;SDS011;7392;52.078;11.650;2023-02-08T10:54:44;70.97;;;40.83;;
14611;SDS011;7392;52.078;11.650;2023-02-08T10:57:13;69.00;;;40.57;;
14611;SDS011;7392;52.078;11.650;2023-02-08T10:59:45;72.57;;;42.73;;
14611;SDS011;7392;52.078;11.650;2023-02-08T11:02:19;71.87;;;43.53;;
14611;SDS011;7392;52.078;11.650;2023-02-08T11:05:04;70.97;;;41.00;;
14611;SDS011;7392;52.078;11.650;2023-02-08T11:07:34;67.97;;;40.00;;
14611;SDS011;7392;52.078;11.650;2023-02-08T11:10:12;65.37;;;38.77;;
14611;SDS011;7392;52.078;11.650;2023-02-08T11:12:52;66.57;;;40.80;;
14611;SDS011;7392;52.078;11.650;2023-02-08T11:15:22;66.63;;;40.23;;
14611;SDS011;7392;52.078;11.650;2023-02-08T11:17:52;70.17;;;41.33;;
14611;SDS011;7392;52.078;11.650;2023-02-08T11:20:26;66.77;;;39.93;;
14611;SDS011;7392;52.078;11.650;2023-02-08T11:22:59;66.13;;;40.70;;
14611;SDS011;7392;52.078;11.650;2023-02-08T11:25:32;63.17;;;39.10;;
14611;SDS011;7392;52.078;11.650;2023-02-08T11:28:01;71.90;;;41.23;;
14611;SDS011;7392;52.078;11.650;2023-02-08T11:30:30;71.10;;;41.13;;
14611;SDS011;7392;52.078;11.650;2023-02-08T11:33:15;66.37;;;38.80;;
14611;SDS011;7392;52.078;11.650;2023-02-08T11:35:56;70.53;;;41.47;;
14611;SDS011;7392;52.078;11.650;2023-02-08T11:38:28;66.77;;;39.73;;
14611;SDS011;7392;52.078;11.650;2023-02-08T11:40:58;69.30;;;39.83;;
14611;SDS011;7392;52.078;11.650;2023-02-08T11:43:28;61.53;;;37.87;;
14611;SDS011;7392;52.078;11.650;2023-02-08T11:45:58;63.47;;;37.37;;
14611;SDS011;7392;52.078;11.650;2023-02-08T11:48:32;63.30;;;39.40;;
14611;SDS011;7392;52.078;11.650;2023-02-08T11:51:05;67.90;;;40.33;;
14611;SDS011;7392;52.078;11.650;2023-02-08T11:53:36;64.20;;;39.70;;
14611;SDS011;7392;52.078;11.650;2023-02-08T11:56:15;68.67;;;40.53;;
14611;SDS011;7392;52.078;11.650;2023-02-08T11:58:58;70.10;;;41.43;;
14611;SDS011;7392;52.078;11.650;2023-02-08T12:01:29;68.30;;;39.97;;
14611;SDS011;7392;52.078;11.650;2023-02-08T12:03:59;63.97;;;38.97;;
14611;SDS011;7392;52.078;11.650;2023-02-08T12:06:35;57.27;;;36.67;;
14611;SDS011;7392;52.078;11.650;2023-02-08T12:09:31;65.43;;;36.43;;
14611;SDS011;7392;52.078;11.650;2023-02-08T12:12:23;64.50;;;37.90;;
14611;SDS011;7392;52.078;11.650;2023-02-08T12:14:59;63.83;;;37.57;;
14611;SDS011;7392;52.078;11.650;2023-02-08T12:17:40;64.20;;;37.37;;
14611;SDS011;7392;52.078;11.650;2023-02-08T12:23:17;56.87;;;36.20;;
14611;SDS011;7392;52.078;11.650;2023-02-08T12:25:59;55.00;;;35.63;;
14611;SDS011;7392;52.078;11.650;2023-02-08T12:28:36;60.97;;;38.43;;
14611;SDS011;7392;52.078;11.650;2023-02-08T12:31:14;57.43;;;37.17;;
14611;SDS011;7392;52.078;11.650;2023-02-08T12:33:52;56.00;;;35.90;;
14611;SDS011;7392;52.078;11.650;2023-02-08T12:36:38;56.00;;;35.40;;
14611;SDS011;7392;52.078;11.650;2023-02-08T12:39:39;54.80;;;34.20;;
14611;SDS011;7392;52.078;11.650;2023-02-08T12:42:37;49.00;;;32.30;;
14611;SDS011;7392;52.078;11.650;2023-02-08T12:45:25;51.93;;;32.17;;
14611;SDS011;7392;52.078;11.650;2023-02-08T12:48:10;52.73;;;35.50;;
14611;SDS011;7392;52.078;11.650;2023-02-08T12:50:49;54.20;;;33.67;;
14611;SDS011;7392;52.078;11.650;2023-02-08T12:53:23;55.33;;;35.17;;
14611;SDS011;7392;52.078;11.650;2023-02-08T12:55:57;53.93;;;35.63;;
14611;SDS011;7392;52.078;11.650;2023-02-08T12:58:30;58.97;;;37.93;;
14611;SDS011;7392;52.078;11.650;2023-02-08T13:01:04;57.10;;;36.90;;
14611;SDS011;7392;52.078;11.650;2023-02-08T13:03:40;58.27;;;37.63;;
14611;SDS011;7392;52.078;11.650;2023-02-08T13:06:12;52.13;;;33.93;;
14611;SDS011;7392;52.078;11.650;2023-02-08T13:08:45;55.93;;;36.10;;
14611;SDS011;7392;52.078;11.650;2023-02-08T13:11:17;56.13;;;36.57;;
14611;SDS011;7392;52.078;11.650;2023-02-08T13:13:54;57.63;;;37.47;;
14611;SDS011;7392;52.078;11.650;2023-02-08T13:16:25;49.63;;;34.23;;
14611;SDS011;7392;52.078;11.650;2023-02-08T13:19:01;51.77;;;34.17;;
14611;SDS011;7392;52.078;11.650;2023-02-08T13:21:50;57.20;;;36.87;;
14611;SDS011;7392;52.078;11.650;2023-02-08T13:24:22;56.10;;;36.97;;
14611;SDS011;7392;52.078;11.650;2023-02-08T13:26:54;53.50;;;35.00;;
14611;SDS011;7392;52.078;11.650;2023-02-08T13:29:23;52.00;;;35.17;;
14611;SDS011;7392;52.078;11.650;2023-02-08T13:31:55;55.83;;;38.00;;
14611;SDS011;7392;52.078;11.650;2023-02-08T13:34:27;54.33;;;37.40;;
14611;SDS011;7392;52.078;11.650;2023-02-08T13:37:03;57.63;;;36.10;;
14611;SDS011;7392;52.078;11.650;2023-02-08T13:39:48;50.53;;;34.90;;
14611;SDS011;7392;52.078;11.650;2023-02-08T13:42:26;51.23;;;34.57;;
14611;SDS011;7392;52.078;11.650;2023-02-08T13:44:58;55.80;;;34.57;;
14611;SDS011;7392;52.078;11.650;2023-02-08T13:47:29;49.37;;;34.17;;
14611;SDS011;7392;52.078;11.650;2023-02-08T13:49:58;51.53;;;35.50;;
14611;SDS011;7392;52.078;11.650;2023-02-08T13:52:49;47.77;;;33.17;;
14611;SDS011;7392;52.078;11.650;2023-02-08T14:01:17;48.33;;;32.80;;
14611;SDS011;7392;52.078;11.650;2023-02-08T14:06:56;42.27;;;28.67;;
14611;SDS011;7392;52.078;11.650;2023-02-08T14:09:46;42.77;;;31.53;;
14611;SDS011;7392;52.078;11.650;2023-02-08T14:12:20;45.80;;;31.33;;
14611;SDS011;7392;52.078;11.650;2023-02-08T14:17:54;45.03;;;31.83;;
14611;SDS011;7392;52.078;11.650;2023-02-08T14:20:26;46.63;;;33.30;;
14611;SDS011;7392;52.078;11.650;2023-02-08T14:22:57;46.53;;;31.97;;
14611;SDS011;7392;52.078;11.650;2023-02-08T14:25:29;46.63;;;32.57;;
14611;SDS011;7392;52.078;11.650;2023-02-08T14:28:05;45.07;;;32.67;;
14611;SDS011;7392;52.078;11.650;2023-02-08T14:30:34;46.27;;;33.93;;
14611;SDS011;7392;52.078;11.650;2023-02-08T14:33:12;43.00;;;31.40;;
14611;SDS011;7392;52.078;11.650;2023-02-08T14:35:51;43.70;;;31.17;;
14611;SDS011;7392;52.078;11.650;2023-02-08T14:38:32;47.30;;;31.80;;
14611;SDS011;7392;52.078;11.650;2023-02-08T14:47:14;45.70;;;30.97;;
14611;SDS011;7392;52.078;11.650;2023-02-08T14:50:20;46.73;;;31.27;;
14611;SDS011;7392;52.078;11.650;2023-02-08T14:52:55;45.13;;;31.03;;
14611;SDS011;7392;52.078;11.650;2023-02-08T14:55:28;42.23;;;30.53;;
14611;SDS011;7392;52.078;11.650;2023-02-08T14:58:00;45.93;;;32.27;;
14611;SDS011;7392;52.078;11.650;2023-02-08T15:00:31;43.00;;;30.77;;
14611;SDS011;7392;52.078;11.650;2023-02-08T15:03:02;48.30;;;32.40;;
14611;SDS011;7392;52.078;11.650;2023-02-08T15:05:34;43.10;;;31.37;;
14611;SDS011;7392;52.078;11.650;2023-02-08T15:08:06;40.53;;;29.20;;
14611;SDS011;7392;52.078;11.650;2023-02-08T15:10:34;42.60;;;30.53;;
14611;SDS011;7392;52.078;11.650;2023-02-08T15:13:11;43.77;;;31.00;;
14611;SDS011;7392;52.078;11.650;2023-02-08T15:15:44;44.73;;;30.67;;